createdAt,value
2018-06-25T00:01:20.322Z,14.30
2018-06-25T00:03:54.538Z,14.30
2018-06-25T00:06:28.794Z,14.20
2018-06-25T00:09:03.214Z,14.30
2018-06-25T00:11:37.666Z,14.30
2018-06-25T00:14:11.855Z,14.00
2018-06-25T00:16:46.142Z,14.20
2018-06-25T00:19:20.454Z,14.30
2018-06-25T00:21:54.885Z,14.20
2018-06-25T00:24:29.251Z,14.20
2018-06-25T00:27:03.489Z,14.30
2018-06-25T00:29:37.825Z,14.30
2018-06-25T00:32:12.110Z,14.30
2018-06-25T00:34:46.438Z,14.30
2018-06-25T00:37:20.694Z,14.30
2018-06-25T00:39:55.026Z,14.40
2018-06-25T00:45:03.619Z,14.30
2018-06-25T00:47:37.875Z,14.20
2018-06-25T00:50:12.266Z,14.30
2018-06-25T00:52:46.466Z,14.30
2018-06-25T00:55:20.762Z,14.30
2018-06-25T00:57:55.107Z,14.30
2018-06-25T01:00:29.465Z,14.10
2018-06-25T01:03:03.806Z,14.20
2018-06-25T01:05:38.050Z,14.10
2018-06-25T01:08:12.335Z,14.20
2018-06-25T01:13:20.706Z,14.10
2018-06-25T01:15:55.014Z,14.20
2018-06-25T01:18:29.320Z,14.10
2018-06-25T01:21:03.719Z,14.20
2018-06-25T01:23:37.987Z,14.20
2018-06-25T01:26:12.250Z,14.20
2018-06-25T01:28:46.438Z,14.20
2018-06-25T01:31:20.782Z,14.20
2018-06-25T01:33:55.468Z,14.00
2018-06-25T01:36:29.939Z,14.10
2018-06-25T01:39:07.090Z,14.10
2018-06-25T01:41:41.454Z,14.10
2018-06-25T01:46:49.731Z,14.20
2018-06-25T01:49:24.051Z,14.10
2018-06-25T01:51:58.351Z,14.20
2018-06-25T01:54:32.645Z,14.20
2018-06-25T01:57:07.054Z,14.30
2018-06-25T01:59:41.302Z,14.20
2018-06-25T02:02:15.486Z,14.30
2018-06-25T02:04:49.813Z,14.30
2018-06-25T02:07:24.035Z,14.30
2018-06-25T02:09:58.310Z,14.30
2018-06-25T02:15:07.085Z,14.20
2018-06-25T02:17:41.325Z,14.20
2018-06-25T02:20:15.642Z,14.20
2018-06-25T02:22:49.833Z,14.20
2018-06-25T02:25:24.257Z,14.30
2018-06-25T02:27:58.571Z,14.30
2018-06-25T02:30:32.871Z,14.30
2018-06-25T02:33:07.385Z,14.30
2018-06-25T02:35:41.590Z,14.20
2018-06-25T02:38:15.891Z,14.30
2018-06-25T02:40:50.373Z,14.30
2018-06-25T02:43:24.584Z,14.30
2018-06-25T02:45:58.781Z,14.20
2018-06-25T02:48:33.070Z,14.30
2018-06-25T02:53:41.602Z,14.20
2018-06-25T02:56:15.886Z,14.20
2018-06-25T02:58:50.187Z,14.30
2018-06-25T03:01:24.511Z,14.10
2018-06-25T03:03:58.747Z,14.10
2018-06-25T03:06:33.007Z,14.10
2018-06-25T03:09:08.346Z,14.00
2018-06-25T03:11:42.487Z,14.10
2018-06-25T03:14:16.835Z,14.10
2018-06-25T03:16:51.259Z,14.20
2018-06-25T03:19:25.647Z,14.10
2018-06-25T03:21:59.831Z,14.20
2018-06-25T03:24:34.055Z,14.20
2018-06-25T03:27:08.338Z,14.30
2018-06-25T03:29:42.571Z,14.20
2018-06-25T03:32:16.917Z,14.30
2018-06-25T03:34:51.201Z,14.30
2018-06-25T03:37:25.669Z,14.30
2018-06-25T03:39:59.871Z,14.40
2018-06-25T03:42:34.138Z,14.40
2018-06-25T03:45:08.404Z,14.40
2018-06-25T03:47:42.795Z,14.40
2018-06-25T03:52:51.230Z,14.40
2018-06-25T03:55:25.370Z,14.40
2018-06-25T03:57:59.777Z,14.40
2018-06-25T04:00:34.090Z,14.30
2018-06-25T04:08:16.816Z,14.40
2018-06-25T04:10:51.222Z,14.40
2018-06-25T04:13:25.495Z,14.40
2018-06-25T04:15:59.797Z,14.50
2018-06-25T04:18:33.934Z,14.30
2018-06-25T04:21:08.238Z,14.40
2018-06-25T04:23:42.501Z,14.40
2018-06-25T04:26:16.773Z,14.50
2018-06-25T04:28:51.182Z,14.50
2018-06-25T04:31:25.607Z,14.60
2018-06-25T04:34:00.045Z,14.50
2018-06-25T04:36:34.398Z,14.50
2018-06-25T04:39:09.915Z,14.50
2018-06-25T04:41:44.163Z,14.60
2018-06-25T04:44:18.503Z,14.70
2018-06-25T04:46:53.378Z,14.60
2018-06-25T04:49:27.563Z,14.60
2018-06-25T04:52:01.917Z,14.40
2018-06-25T04:54:36.158Z,14.60
2018-06-25T04:57:10.593Z,14.70
2018-06-25T04:59:45.029Z,14.60
2018-06-25T05:02:19.305Z,14.60
2018-06-25T05:04:53.691Z,14.60
2018-06-25T05:07:27.962Z,14.50
2018-06-25T05:10:02.210Z,14.60
2018-06-25T05:12:36.614Z,14.50
2018-06-25T05:15:10.926Z,14.50
2018-06-25T05:17:45.335Z,14.60
2018-06-25T05:20:19.687Z,14.70
2018-06-25T05:22:53.941Z,14.70
2018-06-25T05:25:28.236Z,14.70
2018-06-25T05:28:02.643Z,14.80
2018-06-25T05:30:36.982Z,14.90
2018-06-25T05:33:11.102Z,14.90
2018-06-25T05:35:45.572Z,14.80
2018-06-25T05:38:19.918Z,14.80
2018-06-25T05:40:54.244Z,14.80
2018-06-25T05:43:28.565Z,15.00
2018-06-25T05:46:02.882Z,14.90
2018-06-25T05:48:37.206Z,15.00
2018-06-25T05:51:11.450Z,15.10
2018-06-25T05:53:45.682Z,15.00
2018-06-25T05:56:20.040Z,15.20
2018-06-25T05:58:54.742Z,15.20
2018-06-25T06:01:29.090Z,15.10
2018-06-25T06:04:03.506Z,15.10
2018-06-25T06:06:37.777Z,15.00
2018-06-25T06:09:12.319Z,15.00
2018-06-25T06:11:46.715Z,15.10
2018-06-25T06:14:20.938Z,14.90
2018-06-25T06:16:55.366Z,15.10
2018-06-25T06:19:29.778Z,15.20
2018-06-25T06:22:04.026Z,15.10
2018-06-25T06:24:38.238Z,15.10
2018-06-25T06:27:12.495Z,15.00
2018-06-25T06:29:46.964Z,15.00
2018-06-25T06:32:21.465Z,15.20
2018-06-25T06:34:55.766Z,15.10
2018-06-25T06:37:30.056Z,15.10
2018-06-25T06:40:04.367Z,15.20
2018-06-25T06:42:38.785Z,15.20
2018-06-25T06:45:12.982Z,15.20
2018-06-25T06:47:47.281Z,15.30
2018-06-25T06:52:55.738Z,15.40
2018-06-25T06:55:29.980Z,15.40
2018-06-25T06:58:04.154Z,15.50
2018-06-25T07:00:38.375Z,15.40
2018-06-25T07:03:12.669Z,15.50
2018-06-25T07:05:46.991Z,15.60
2018-06-25T07:08:21.314Z,15.60
2018-06-25T07:10:55.738Z,15.70
2018-06-25T07:13:30.016Z,15.70
2018-06-25T07:16:04.226Z,15.70
2018-06-25T07:18:38.382Z,15.70
2018-06-25T07:21:12.620Z,15.50
2018-06-25T07:23:46.810Z,15.60
2018-06-25T07:26:22.412Z,15.60
2018-06-25T07:28:57.046Z,15.70
2018-06-25T07:31:31.214Z,15.80
2018-06-25T07:34:05.408Z,15.80
2018-06-25T07:36:39.666Z,15.80
2018-06-25T07:39:13.985Z,15.80
2018-06-25T07:41:48.240Z,15.90
2018-06-25T07:44:22.486Z,16.00
2018-06-25T07:46:56.593Z,16.00
2018-06-25T07:49:31.050Z,16.00
2018-06-25T07:52:05.309Z,16.00
2018-06-25T07:54:39.718Z,16.10
2018-06-25T07:57:14.111Z,16.00
2018-06-25T07:59:48.350Z,15.90
2018-06-25T08:02:22.634Z,16.00
2018-06-25T08:04:56.957Z,16.00
2018-06-25T08:07:31.331Z,16.00
2018-06-25T08:12:39.681Z,15.90
2018-06-25T08:15:13.878Z,16.00
2018-06-25T08:17:48.201Z,16.30
2018-06-25T08:20:22.619Z,16.20
2018-06-25T08:22:56.861Z,16.30
2018-06-25T08:25:31.090Z,16.40
2018-06-25T08:28:05.390Z,16.60
2018-06-25T08:30:39.700Z,16.70
2018-06-25T08:33:13.974Z,16.60
2018-06-25T08:35:48.282Z,16.60
2018-06-25T08:40:56.718Z,16.80
2018-06-25T08:43:31.049Z,16.90
2018-06-25T08:46:05.215Z,16.90
2018-06-25T08:48:39.471Z,16.80
2018-06-25T08:53:48.019Z,16.80
2018-06-25T08:56:22.435Z,16.90
2018-06-25T08:58:56.756Z,17.00
2018-06-25T09:01:31.065Z,17.30
2018-06-25T09:04:05.531Z,17.40
2018-06-25T09:06:39.712Z,17.60
2018-06-25T09:09:13.865Z,17.60
2018-06-25T09:11:48.182Z,17.60
2018-06-25T09:14:22.634Z,17.60
2018-06-25T09:16:57.113Z,17.70
2018-06-25T09:19:31.393Z,17.70
2018-06-25T09:22:05.887Z,17.80
2018-06-25T09:24:40.190Z,18.00
2018-06-25T09:27:14.494Z,18.20
2018-06-25T09:29:48.838Z,18.20
2018-06-25T09:32:23.091Z,18.10
2018-06-25T09:34:57.294Z,18.30
2018-06-25T09:37:31.531Z,18.20
2018-06-25T09:40:06.306Z,18.30
2018-06-25T09:42:40.697Z,18.40
2018-06-25T09:45:14.987Z,18.40
2018-06-25T09:47:49.259Z,18.40
2018-06-25T09:52:57.839Z,18.40
2018-06-25T09:55:32.167Z,18.50
2018-06-25T09:58:06.594Z,18.60
2018-06-25T10:00:46.171Z,18.70
2018-06-25T10:03:20.442Z,18.70
2018-06-25T10:05:54.905Z,18.40
2018-06-25T10:08:29.099Z,18.40
2018-06-25T10:11:03.347Z,18.50
2018-06-25T10:13:37.653Z,18.70
2018-06-25T10:16:11.990Z,18.70
2018-06-25T10:18:46.242Z,18.80
2018-06-25T10:21:20.625Z,19.10
2018-06-25T10:23:54.980Z,19.20
2018-06-25T10:26:29.277Z,19.30
2018-06-25T10:29:03.655Z,19.20
2018-06-25T10:31:37.874Z,19.20
2018-06-25T10:34:12.247Z,19.10
2018-06-25T10:36:46.682Z,19.20
2018-06-25T10:39:20.975Z,19.10
2018-06-25T10:41:55.182Z,19.50
2018-06-25T10:47:03.742Z,19.50
2018-06-25T10:49:38.205Z,19.40
2018-06-25T10:52:12.525Z,19.10
2018-06-25T10:54:46.838Z,19.30
2018-06-25T10:57:21.150Z,19.20
2018-06-25T10:59:55.698Z,19.20
2018-06-25T11:02:29.894Z,19.20
2018-06-25T11:07:38.447Z,19.00
2018-06-25T11:10:12.870Z,19.00
2018-06-25T11:15:21.453Z,19.00
2018-06-25T11:17:55.764Z,19.00
2018-06-25T11:20:30.166Z,19.00
2018-06-25T11:23:04.466Z,19.30
2018-06-25T11:25:38.744Z,19.30
2018-06-25T11:28:13.031Z,19.00
2018-06-25T11:30:47.238Z,19.10
2018-06-25T11:33:21.942Z,19.10
2018-06-25T11:35:56.283Z,19.20
2018-06-25T11:41:04.730Z,19.40
2018-06-25T11:43:39.080Z,19.60
2018-06-25T11:46:13.373Z,19.50
2018-06-25T11:48:47.761Z,19.50
2018-06-25T11:51:22.026Z,19.40
2018-06-25T11:53:56.334Z,19.50
2018-06-25T11:56:30.615Z,19.50
2018-06-25T12:01:39.314Z,19.70
2018-06-25T12:04:13.627Z,19.40
2018-06-25T12:06:47.953Z,19.50
2018-06-25T12:09:22.358Z,19.20
2018-06-25T12:11:56.744Z,19.50
2018-06-25T12:14:31.081Z,19.40
2018-06-25T12:17:05.294Z,19.40
2018-06-25T12:22:13.755Z,19.50
2018-06-25T12:24:48.010Z,19.50
2018-06-25T12:27:22.306Z,19.50
2018-06-25T12:29:56.634Z,19.40
2018-06-25T12:32:31.015Z,19.50
2018-06-25T12:35:05.343Z,19.60
2018-06-25T12:37:39.602Z,19.50
2018-06-25T12:40:13.765Z,19.50
2018-06-25T12:42:48.042Z,19.20
2018-06-25T12:45:22.442Z,19.30
2018-06-25T12:53:05.249Z,19.60
2018-06-25T12:55:39.822Z,19.30
2018-06-25T12:58:14.022Z,19.60
2018-06-25T13:00:48.314Z,19.60
2018-06-25T13:03:22.655Z,19.50
2018-06-25T13:05:56.931Z,19.60
2018-06-25T13:08:31.222Z,19.90
2018-06-25T13:11:05.389Z,20.10
2018-06-25T13:13:39.694Z,20.20
2018-06-25T13:16:13.923Z,19.90
2018-06-25T13:18:48.249Z,20.20
2018-06-25T13:21:22.512Z,20.50
2018-06-25T13:23:56.840Z,20.60
2018-06-25T13:26:31.122Z,20.50
2018-06-25T13:29:05.438Z,20.70
2018-06-25T13:31:39.738Z,20.90
2018-06-25T13:34:14.027Z,20.70
2018-06-25T13:36:48.323Z,20.60
2018-06-25T13:39:22.750Z,20.80
2018-06-25T13:41:57.010Z,20.80
2018-06-25T13:44:31.274Z,21.10
2018-06-25T13:47:05.527Z,21.10
2018-06-25T13:49:39.862Z,20.70
2018-06-25T13:52:14.015Z,21.00
2018-06-25T13:54:48.335Z,21.00
2018-06-25T13:57:22.578Z,21.20
2018-06-25T13:59:56.887Z,20.70
2018-06-25T14:02:31.258Z,21.10
2018-06-25T14:05:05.626Z,20.90
2018-06-25T14:07:39.874Z,21.20
2018-06-25T14:10:14.299Z,21.00
2018-06-25T14:12:48.574Z,21.00
2018-06-25T14:15:22.758Z,21.10
2018-06-25T14:17:57.063Z,21.20
2018-06-25T14:20:31.317Z,20.90
2018-06-25T14:23:05.762Z,21.00
2018-06-25T14:25:45.513Z,21.10
2018-06-25T14:28:25.256Z,20.90
2018-06-25T14:31:05.233Z,20.90
2018-06-25T14:33:42.601Z,20.90
2018-06-25T14:36:16.760Z,20.50
2018-06-25T14:38:51.106Z,20.80
2018-06-25T14:41:25.545Z,20.80
2018-06-25T14:43:59.926Z,20.70
2018-06-25T14:46:34.227Z,20.70
2018-06-25T14:49:08.501Z,20.90
2018-06-25T14:51:42.696Z,20.90
2018-06-25T14:54:16.990Z,21.00
2018-06-25T14:56:51.395Z,20.90
2018-06-25T14:59:25.690Z,21.00
2018-06-25T15:01:59.918Z,21.00
2018-06-25T15:04:34.180Z,21.00
2018-06-25T15:07:08.614Z,20.90
2018-06-25T15:09:42.887Z,20.70
2018-06-25T15:14:51.481Z,20.80
2018-06-25T15:17:25.621Z,20.90
2018-06-25T15:19:59.967Z,20.80
2018-06-25T15:22:34.277Z,20.80
2018-06-25T15:25:08.501Z,20.70
2018-06-25T15:27:42.807Z,20.70
2018-06-25T15:30:17.056Z,20.80
2018-06-25T15:32:51.281Z,21.00
2018-06-25T15:35:25.527Z,21.10
2018-06-25T15:37:59.824Z,21.30
2018-06-25T15:40:34.111Z,21.30
2018-06-25T15:43:08.414Z,21.30
2018-06-25T15:45:42.701Z,21.00
2018-06-25T15:48:17.154Z,21.30
2018-06-25T15:50:51.447Z,21.50
2018-06-25T15:53:25.709Z,21.60
2018-06-25T15:55:59.978Z,21.50
2018-06-25T15:58:34.266Z,21.70
2018-06-25T16:01:08.574Z,21.70
2018-06-25T16:03:42.858Z,21.60
2018-06-25T16:06:17.041Z,21.50
2018-06-25T16:08:51.266Z,21.50
2018-06-25T16:11:25.602Z,21.50
2018-06-25T16:13:59.886Z,21.50
2018-06-25T16:16:34.304Z,21.40
2018-06-25T16:19:08.626Z,21.70
2018-06-25T16:21:43.027Z,22.10
2018-06-25T16:24:17.173Z,22.10
2018-06-25T16:26:51.462Z,22.10
2018-06-25T16:29:25.793Z,22.00
2018-06-25T16:34:34.054Z,22.50
2018-06-25T16:37:08.355Z,22.80
2018-06-25T16:39:42.658Z,23.10
2018-06-25T16:42:17.066Z,22.90
2018-06-25T16:44:51.238Z,22.50
2018-06-25T16:47:25.548Z,22.50
2018-06-25T16:49:59.830Z,22.60
2018-06-25T16:55:08.391Z,22.40
2018-06-25T16:57:42.659Z,22.20
2018-06-25T17:00:16.933Z,22.20
2018-06-25T17:02:51.241Z,22.20
2018-06-25T17:05:25.651Z,22.10
2018-06-25T17:07:59.941Z,22.40
2018-06-25T17:10:34.246Z,22.80
2018-06-25T17:13:08.450Z,22.30
2018-06-25T17:15:42.710Z,22.20
2018-06-25T17:18:16.962Z,21.90
2018-06-25T17:20:51.110Z,22.00
2018-06-25T17:23:25.407Z,21.80
2018-06-25T17:26:00.150Z,21.60
2018-06-25T17:28:34.494Z,21.50
2018-06-25T17:31:08.998Z,21.50
2018-06-25T17:33:43.563Z,21.40
2018-06-25T17:36:17.922Z,21.30
2018-06-25T17:38:52.158Z,21.30
2018-06-25T17:41:26.422Z,21.20
2018-06-25T17:44:00.787Z,21.50
2018-06-25T17:46:35.030Z,21.30
2018-06-25T17:49:09.339Z,21.00
2018-06-25T17:51:43.775Z,21.40
2018-06-25T17:54:18.090Z,21.30
2018-06-25T17:56:52.530Z,21.40
2018-06-25T17:59:26.964Z,21.20
2018-06-25T18:04:35.346Z,21.20
2018-06-25T18:07:09.682Z,21.70
2018-06-25T18:09:43.906Z,21.80
2018-06-25T18:12:18.490Z,21.70
2018-06-25T18:14:52.783Z,21.70
2018-06-25T18:17:27.086Z,21.50
2018-06-25T18:20:01.514Z,21.40
2018-06-25T18:22:35.805Z,21.00
2018-06-25T18:25:10.154Z,20.90
2018-06-25T18:27:44.377Z,20.90
2018-06-25T18:30:18.636Z,20.60
2018-06-25T18:32:52.850Z,20.60
2018-06-25T18:35:27.246Z,20.40
2018-06-25T18:38:01.603Z,20.20
2018-06-25T18:40:35.881Z,20.10
2018-06-25T18:43:10.167Z,20.10
2018-06-25T18:45:44.425Z,20.10
2018-06-25T18:48:18.730Z,19.80
2018-06-25T18:50:52.966Z,19.80
2018-06-25T18:53:27.382Z,19.80
2018-06-25T18:56:01.632Z,19.70
2018-06-25T18:58:35.910Z,19.60
2018-06-25T19:01:10.144Z,19.40
2018-06-25T19:03:44.446Z,19.40
2018-06-25T19:06:18.647Z,19.30
2018-06-25T19:08:53.050Z,19.40
2018-06-25T19:11:27.187Z,19.30
2018-06-25T19:14:01.453Z,19.30
2018-06-25T19:16:35.730Z,19.10
2018-06-25T19:19:10.116Z,19.10
2018-06-25T19:21:44.528Z,18.90
2018-06-25T19:24:18.731Z,18.70
2018-06-25T19:26:53.086Z,18.70
2018-06-25T19:29:27.506Z,18.30
2018-06-25T19:32:01.712Z,18.40
2018-06-25T19:34:35.857Z,18.20
2018-06-25T19:37:10.469Z,18.10
2018-06-25T19:39:44.938Z,18.20
2018-06-25T19:42:19.094Z,18.20
2018-06-25T19:44:53.438Z,18.10
2018-06-25T19:47:27.815Z,18.10
2018-06-25T19:50:02.090Z,18.10
2018-06-25T19:52:36.488Z,18.10
2018-06-25T19:55:10.910Z,17.80
2018-06-25T19:57:45.042Z,17.90
2018-06-25T20:00:19.282Z,17.40
2018-06-25T20:02:53.627Z,17.50
2018-06-25T20:05:27.962Z,17.60
2018-06-25T20:08:02.263Z,17.60
2018-06-25T20:10:36.595Z,17.30
2018-06-25T20:13:10.974Z,17.50
2018-06-25T20:15:45.360Z,17.50
2018-06-25T20:18:19.743Z,17.40
2018-06-25T20:20:54.065Z,17.50
2018-06-25T20:23:28.366Z,17.40
2018-06-25T20:26:02.552Z,17.20
2018-06-25T20:28:36.770Z,17.00
2018-06-25T20:31:11.046Z,16.90
2018-06-25T20:33:45.455Z,17.00
2018-06-25T20:36:19.789Z,17.10
2018-06-25T20:38:54.011Z,17.10
2018-06-25T20:44:02.553Z,17.10
2018-06-25T20:46:36.842Z,17.10
2018-06-25T20:49:11.199Z,17.00
2018-06-25T20:51:45.903Z,17.10
2018-06-25T20:54:20.234Z,17.00
2018-06-25T20:56:54.603Z,16.90
2018-06-25T20:59:28.809Z,17.00
2018-06-25T21:02:03.125Z,16.90
2018-06-25T21:04:37.449Z,17.00
2018-06-25T21:07:11.711Z,16.90
2018-06-25T21:09:46.019Z,16.70
2018-06-25T21:12:20.334Z,16.80
2018-06-25T21:14:54.605Z,16.90
2018-06-25T21:17:28.854Z,16.90
2018-06-25T21:20:03.218Z,16.90
2018-06-25T21:22:38.195Z,16.90
2018-06-25T21:25:12.351Z,16.90
2018-06-25T21:27:46.611Z,16.90
2018-06-25T21:30:21.070Z,17.00
2018-06-25T21:32:55.457Z,16.90
2018-06-25T21:35:29.834Z,17.00
2018-06-25T21:38:04.094Z,16.90
2018-06-25T21:40:38.406Z,16.90
2018-06-25T21:43:12.696Z,17.00
2018-06-25T21:45:47.012Z,17.00
2018-06-25T21:48:21.332Z,16.80
2018-06-25T21:50:55.710Z,16.90
2018-06-25T21:53:29.969Z,16.90
2018-06-25T21:56:04.403Z,16.80
2018-06-25T21:58:38.667Z,16.80
2018-06-25T22:01:12.974Z,16.70
2018-06-25T22:03:47.222Z,16.60
2018-06-25T22:06:21.581Z,16.50
2018-06-25T22:08:55.959Z,16.60
2018-06-25T22:11:30.258Z,16.50
2018-06-25T22:14:04.582Z,16.70
2018-06-25T22:16:38.899Z,16.60
2018-06-25T22:19:13.058Z,16.60
2018-06-25T22:21:47.374Z,16.50
2018-06-25T22:26:55.860Z,16.50
2018-06-25T22:29:30.087Z,16.40
2018-06-25T22:32:04.346Z,16.40
2018-06-25T22:34:38.627Z,16.50
2018-06-25T22:37:12.829Z,16.50
2018-06-25T22:39:47.022Z,16.40
2018-06-25T22:42:21.357Z,16.30
2018-06-25T22:44:55.759Z,16.30
2018-06-25T22:47:30.058Z,16.20
2018-06-25T22:50:04.712Z,16.20
2018-06-25T22:52:38.999Z,16.40
2018-06-25T22:55:13.231Z,16.30
2018-06-25T22:57:47.442Z,16.30
2018-06-25T23:02:55.755Z,16.00
2018-06-25T23:05:30.018Z,16.10
2018-06-25T23:08:04.170Z,16.10
2018-06-25T23:10:38.398Z,16.10
2018-06-25T23:13:12.827Z,16.10
2018-06-25T23:15:47.087Z,16.10
2018-06-25T23:18:21.369Z,16.20
2018-06-25T23:20:55.658Z,16.10
2018-06-25T23:23:30.019Z,16.10
2018-06-25T23:26:04.273Z,16.10
2018-06-25T23:28:38.671Z,16.10
2018-06-25T23:31:12.979Z,15.80
2018-06-25T23:33:47.162Z,15.70
2018-06-25T23:36:21.563Z,15.80
2018-06-25T23:38:55.785Z,15.80
2018-06-25T23:41:30.188Z,15.90
2018-06-25T23:44:04.513Z,15.70
2018-06-25T23:46:38.768Z,15.80
2018-06-25T23:49:13.187Z,15.80
2018-06-25T23:51:47.497Z,15.90
2018-06-25T23:54:21.822Z,15.90
2018-06-25T23:56:56.027Z,15.90
2018-06-25T23:59:30.325Z,15.80
